Time;durP1;ratioP1;P1;durP2;ratioP2;P2;SDS_P1;SDS_P2;PMS_P1;PMS_P2;Temp;Humidity;BMP_temperature;BMP_pressure;BME280_temperature;BME280_humidity;BME280_pressure;Samples;Min_cycle;Max_cycle;Signal;HPM_P1;HPM_P2
2022/03/26 00:01:22;;;;;;;30.17;20.20;;;19.20;40.00;;;;;;6217280;23;20551;-68
2022/03/26 00:03:49;;;;;;;26.17;19.42;;;19.10;40.20;;;;;;6190792;23;20187;-67
2022/03/26 00:06:18;;;;;;;26.52;19.60;;;19.10;40.10;;;;;;6190590;23;20171;-68
2022/03/26 00:08:44;;;;;;;26.20;19.10;;;19.00;40.00;;;;;;6217618;23;20168;-68
2022/03/26 00:11:11;;;;;;;27.02;18.85;;;19.00;40.00;;;;;;6190499;23;20175;-67
2022/03/26 00:13:39;;;;;;;27.17;18.77;;;19.00;40.30;;;;;;6190155;23;20222;-68
2022/03/26 00:16:06;;;;;;;26.85;18.95;;;19.00;40.10;;;;;;6190487;23;20176;-68
2022/03/26 00:18:33;;;;;;;25.10;17.98;;;19.00;40.20;;;;;;6190482;23;20171;-68
2022/03/26 00:21:01;;;;;;;27.00;19.33;;;19.00;40.20;;;;;;6190407;23;20179;-68
2022/03/26 00:23:29;;;;;;;23.42;18.20;;;18.90;40.00;;;;;;6190375;23;20278;-68
2022/03/26 00:25:58;;;;;;;21.65;17.63;;;18.90;40.30;;;;;;6217050;23;20167;-68
2022/03/26 00:28:25;;;;;;;24.80;17.65;;;18.90;40.00;;;;;;6190574;23;20175;-68
2022/03/26 00:30:54;;;;;;;26.08;18.40;;;18.80;40.20;;;;;;6190229;23;20606;-68
2022/03/26 00:33:21;;;;;;;24.40;17.55;;;18.90;40.30;;;;;;6190026;23;20218;-68
2022/03/26 00:35:48;;;;;;;25.08;17.13;;;18.80;40.00;;;;;;6190694;23;20250;-68
2022/03/26 00:38:16;;;;;;;22.58;17.10;;;18.80;40.30;;;;;;6190466;23;20172;-68
2022/03/26 00:40:44;;;;;;;24.35;18.10;;;18.80;40.00;;;;;;6190498;23;20266;-68
2022/03/26 00:43:11;;;;;;;24.65;17.52;;;18.70;40.00;;;;;;6190606;23;20191;-68
2022/03/26 00:45:38;;;;;;;22.05;17.00;;;18.80;40.10;;;;;;6217283;23;20261;-68
2022/03/26 00:48:06;;;;;;;23.35;16.58;;;18.70;40.70;;;;;;6191149;23;20492;-68
2022/03/26 00:50:34;;;;;;;23.42;17.00;;;18.70;40.00;;;;;;6191753;23;20177;-67
2022/03/26 00:53:01;;;;;;;24.73;17.00;;;18.70;40.10;;;;;;6190734;23;20666;-68
2022/03/26 00:55:28;;;;;;;24.08;17.42;;;18.70;40.10;;;;;;6240029;22;20225;-63
2022/03/26 00:57:57;;;;;;;22.33;17.20;;;18.70;40.10;;;;;;6220302;23;20181;-62
2022/03/26 01:00:24;;;;;;;20.20;16.35;;;18.60;40.20;;;;;;6246639;23;20190;-62
2022/03/26 01:02:51;;;;;;;21.17;15.85;;;18.60;40.10;;;;;;6237909;23;20187;-62
2022/03/26 01:05:19;;;;;;;23.58;16.67;;;18.60;40.10;;;;;;6189844;23;20171;-62
2022/03/26 01:07:46;;;;;;;20.27;15.55;;;18.60;40.10;;;;;;6216423;23;20238;-62
2022/03/26 01:10:13;;;;;;;21.50;16.20;;;18.60;40.10;;;;;;6216567;23;20218;-62
2022/03/26 01:12:41;;;;;;;20.40;15.73;;;18.60;40.00;;;;;;6216671;23;20234;-62
2022/03/26 01:15:10;;;;;;;21.08;17.02;;;18.50;40.10;;;;;;6216322;23;20217;-62
2022/03/26 01:17:37;;;;;;;22.13;16.52;;;18.50;40.00;;;;;;6216479;23;20172;-62
2022/03/26 01:20:05;;;;;;;19.42;16.55;;;18.50;40.10;;;;;;6189772;23;20171;-62
2022/03/26 01:22:32;;;;;;;20.67;16.30;;;18.50;40.10;;;;;;6216493;23;20187;-62
2022/03/26 01:24:59;;;;;;;19.27;15.40;;;18.50;40.10;;;;;;6189691;23;20226;-62
2022/03/26 01:27:26;;;;;;;19.95;15.52;;;18.50;40.00;;;;;;6216680;23;20183;-62
2022/03/26 01:29:54;;;;;;;19.48;16.00;;;18.50;40.10;;;;;;6217453;23;20175;-63
2022/03/26 01:32:22;;;;;;;20.35;15.32;;;18.50;40.10;;;;;;6218678;23;20549;-62
2022/03/26 01:34:50;;;;;;;19.50;15.35;;;18.50;40.10;;;;;;6218323;23;20642;-62
2022/03/26 01:37:17;;;;;;;17.67;14.60;;;18.40;40.00;;;;;;6216949;23;20242;-62
2022/03/26 01:39:45;;;;;;;17.92;15.45;;;18.40;40.00;;;;;;6189665;23;20195;-63
2022/03/26 01:42:12;;;;;;;17.67;15.23;;;18.40;39.90;;;;;;6216451;23;20167;-63
2022/03/26 01:44:39;;;;;;;19.73;15.63;;;18.40;40.00;;;;;;6216176;23;20159;-63
2022/03/26 01:47:07;;;;;;;19.00;14.68;;;18.30;40.00;;;;;;6216265;23;20549;-63
2022/03/26 01:49:35;;;;;;;19.70;14.68;;;18.30;40.00;;;;;;6189381;23;20195;-63
2022/03/26 01:52:02;;;;;;;16.73;14.13;;;18.30;39.90;;;;;;6216117;23;20173;-62
2022/03/26 01:54:30;;;;;;;17.63;14.65;;;18.30;39.90;;;;;;6189221;23;20210;-63
2022/03/26 01:56:57;;;;;;;15.75;13.90;;;18.30;39.90;;;;;;6216038;23;20166;-63
2022/03/26 01:59:24;;;;;;;14.95;13.27;;;18.30;39.90;;;;;;6189395;23;20225;-63
2022/03/26 02:01:52;;;;;;;16.92;14.07;;;18.30;39.90;;;;;;6189429;23;20195;-63
2022/03/26 02:04:23;;;;;;;21.15;14.77;;;18.30;40.00;;;;;;6215885;23;20560;-63
2022/03/26 02:06:51;;;;;;;16.48;13.65;;;18.20;39.80;;;;;;6189432;23;20175;-63
2022/03/26 02:09:18;;;;;;;16.40;13.98;;;18.30;39.90;;;;;;6189438;23;20177;-63
2022/03/26 02:11:46;;;;;;;17.90;13.75;;;18.20;39.90;;;;;;6215741;23;20183;-63
2022/03/26 02:14:14;;;;;;;17.48;14.27;;;18.20;39.90;;;;;;6215563;23;20261;-63
2022/03/26 02:16:41;;;;;;;16.42;13.25;;;18.20;39.80;;;;;;6189238;23;20168;-63
2022/03/26 02:19:09;;;;;;;16.27;13.65;;;18.20;39.90;;;;;;6215814;23;20198;-63
2022/03/26 02:21:39;;;;;;;17.15;13.90;;;18.20;39.90;;;;;;6189158;23;20203;-62
2022/03/26 02:24:08;;;;;;;16.73;13.82;;;18.20;39.80;;;;;;6216080;23;20176;-63
2022/03/26 02:26:35;;;;;;;15.27;13.68;;;18.10;39.80;;;;;;6189167;23;20261;-63
2022/03/26 02:29:07;;;;;;;16.48;13.07;;;18.10;39.80;;;;;;6216078;23;20259;-63
2022/03/26 02:31:34;;;;;;;17.08;13.60;;;18.10;39.80;;;;;;6189236;23;20517;-63
2022/03/26 02:34:01;;;;;;;16.98;13.88;;;18.10;40.00;;;;;;6215360;23;20187;-62
2022/03/26 02:36:28;;;;;;;15.15;13.07;;;18.10;39.80;;;;;;6188974;23;20262;-63
2022/03/26 02:38:57;;;;;;;15.50;13.27;;;18.10;39.80;;;;;;6189340;23;20168;-62
2022/03/26 02:41:24;;;;;;;14.82;13.02;;;18.10;40.00;;;;;;6189046;23;20172;-63
2022/03/26 02:43:51;;;;;;;16.17;13.60;;;18.00;40.50;;;;;;6215472;23;20175;-63
2022/03/26 02:46:18;;;;;;;16.63;12.95;;;18.00;39.70;;;;;;6215565;23;20637;-63
2022/03/26 02:48:45;;;;;;;15.40;12.73;;;18.00;39.70;;;;;;6215966;23;20167;-63
2022/03/26 03:02:09;;;;;;;14.93;12.40;;;18.00;40.50;;;;;;6243830;22;20280;-69
2022/03/26 03:04:36;;;;;;;15.85;12.77;;;17.90;39.70;;;;;;6238390;22;20183;-70
2022/03/26 03:07:04;;;;;;;16.55;13.40;;;17.90;39.70;;;;;;6190771;23;20497;-70
2022/03/26 03:09:31;;;;;;;16.98;13.02;;;17.90;39.80;;;;;;6191080;23;20645;-70
2022/03/26 03:11:59;;;;;;;14.43;12.13;;;17.90;39.60;;;;;;6207719;22;20256;-66
2022/03/26 03:14:26;;;;;;;15.23;11.98;;;17.90;40.00;;;;;;6191702;23;20201;-68
2022/03/26 03:16:54;;;;;;;15.50;13.07;;;17.80;39.90;;;;;;6189781;23;20497;-69
2022/03/26 03:19:22;;;;;;;12.90;11.52;;;17.80;39.90;;;;;;6189940;23;20203;-68
2022/03/26 03:21:49;;;;;;;14.27;12.40;;;17.80;39.90;;;;;;6190656;23;20633;-68
2022/03/26 03:24:17;;;;;;;15.68;12.30;;;17.80;39.90;;;;;;6218606;23;20190;-67
2022/03/26 03:29:22;;;;;;;15.38;12.55;;;17.80;39.80;;;;;;6188666;23;20673;-63
2022/03/26 03:31:49;;;;;;;16.55;12.88;;;17.80;39.90;;;;;;6162043;23;20614;-63
2022/03/26 03:37:06;;;;;;;13.68;11.77;;;17.80;39.90;;;;;;6218631;23;20478;-66
2022/03/26 03:39:34;;;;;;;13.43;11.75;;;17.80;40.00;;;;;;6191351;23;20183;-65
2022/03/26 03:42:01;;;;;;;12.73;11.40;;;17.70;39.70;;;;;;6203398;22;20273;-63
2022/03/26 03:44:28;;;;;;;13.68;11.75;;;17.70;39.90;;;;;;6220685;23;20199;-63
2022/03/26 03:46:55;;;;;;;15.38;12.40;;;17.70;39.80;;;;;;6191530;23;20637;-63
2022/03/26 03:49:22;;;;;;;14.25;11.70;;;17.70;39.90;;;;;;6218169;23;20582;-63
2022/03/26 03:54:37;;;;;;;14.38;12.82;;;17.70;39.70;;;;;;6218860;23;20229;-66
2022/03/26 03:57:05;;;;;;;13.82;12.10;;;17.70;39.80;;;;;;6218159;23;20246;-68
2022/03/26 03:59:33;;;;;;;13.60;11.95;;;17.70;39.80;;;;;;6232625;22;20229;-69
2022/03/26 04:01:59;;;;;;;12.98;11.60;;;17.70;39.70;;;;;;6221939;23;20174;-69
2022/03/26 04:09:49;;;;;;;14.18;12.75;;;17.60;39.80;;;;;;6217850;23;20202;-51
2022/03/26 04:12:16;;;;;;;12.73;11.18;;;17.60;39.70;;;;;;6190870;23;20214;-51
2022/03/26 04:14:44;;;;;;;13.63;12.15;;;17.70;39.90;;;;;;6217341;23;20267;-51
2022/03/26 04:17:12;;;;;;;12.93;11.50;;;17.60;39.80;;;;;;6217063;23;20168;-51
2022/03/26 04:19:40;;;;;;;12.98;11.68;;;17.60;39.80;;;;;;6217142;23;20163;-51
2022/03/26 04:22:07;;;;;;;13.10;11.05;;;17.60;39.70;;;;;;6215527;23;20172;-51
2022/03/26 04:24:36;;;;;;;13.15;11.70;;;17.60;39.70;;;;;;6217307;23;20251;-52
2022/03/26 04:27:05;;;;;;;12.38;11.10;;;17.60;39.60;;;;;;6219350;23;20274;-72
2022/03/26 04:29:32;;;;;;;12.45;11.00;;;17.60;40.30;;;;;;6221610;23;20175;-72
2022/03/26 04:31:59;;;;;;;13.35;11.95;;;17.60;39.50;;;;;;6248126;23;20240;-72
2022/03/26 04:34:26;;;;;;;13.80;11.20;;;17.50;39.60;;;;;;6220923;23;20282;-72
2022/03/26 04:36:54;;;;;;;12.90;11.60;;;17.60;39.90;;;;;;6255521;22;20194;-63
2022/03/26 04:39:21;;;;;;;12.55;11.30;;;17.50;39.80;;;;;;6251423;22;20174;-63
2022/03/26 04:41:49;;;;;;;11.82;10.73;;;17.60;39.90;;;;;;6250961;22;20245;-63
2022/03/26 04:44:17;;;;;;;12.98;10.95;;;17.50;39.70;;;;;;6245856;23;20584;-64
2022/03/26 04:46:44;;;;;;;13.80;11.48;;;17.50;39.70;;;;;;6248016;22;20201;-63
2022/03/26 04:49:12;;;;;;;11.48;10.27;;;17.50;39.60;;;;;;6245967;23;20166;-63
2022/03/26 04:54:28;;;;;;;12.52;11.23;;;17.60;39.90;;;;;;6219520;23;20642;-65
2022/03/26 04:56:55;;;;;;;12.35;10.98;;;17.50;39.70;;;;;;6217735;23;20171;-66
2022/03/26 04:59:23;;;;;;;11.82;10.25;;;17.50;39.80;;;;;;6191446;23;20250;-65
2022/03/26 05:01:50;;;;;;;12.07;10.75;;;17.60;40.50;;;;;;6191575;23;20185;-66
2022/03/26 05:04:18;;;;;;;12.43;11.05;;;17.50;39.70;;;;;;6191436;23;20199;-66
2022/03/26 05:06:45;;;;;;;11.82;10.63;;;17.50;39.70;;;;;;6191203;23;20199;-65
2022/03/26 05:09:12;;;;;;;12.00;10.80;;;17.50;39.90;;;;;;6191839;23;20178;-66
2022/03/26 05:11:40;;;;;;;12.00;10.80;;;17.50;39.60;;;;;;6192256;23;20254;-66
2022/03/26 05:14:07;;;;;;;11.93;10.70;;;17.50;39.50;;;;;;6219004;23;20191;-66
2022/03/26 05:16:37;;;;;;;12.07;10.88;;;17.50;39.50;;;;;;6191363;23;20175;-66
2022/03/26 05:19:04;;;;;;;12.30;10.93;;;17.50;39.60;;;;;;6191567;23;20186;-65
2022/03/26 05:21:31;;;;;;;11.57;10.23;;;17.50;39.70;;;;;;6191199;23;20634;-68
2022/03/26 05:23:58;;;;;;;13.27;11.20;;;17.50;39.60;;;;;;6190636;23;20195;-68
2022/03/26 05:26:26;;;;;;;13.02;11.68;;;17.50;39.50;;;;;;6190976;23;20172;-68
2022/03/26 05:28:53;;;;;;;11.45;10.20;;;17.50;39.50;;;;;;6217300;23;20167;-68
2022/03/26 05:31:20;;;;;;;12.60;10.93;;;17.50;39.50;;;;;;6191187;23;20213;-68
2022/03/26 05:33:48;;;;;;;11.45;10.25;;;17.50;39.30;;;;;;6220631;23;20282;-68
2022/03/26 05:36:16;;;;;;;12.80;11.27;;;17.50;39.30;;;;;;6199267;23;20192;-68
2022/03/26 05:38:43;;;;;;;13.35;11.23;;;17.60;40.00;;;;;;6197245;23;20203;-68
2022/03/26 05:41:10;;;;;;;13.57;10.70;;;17.60;39.40;;;;;;6190647;23;20261;-68
2022/03/26 05:43:37;;;;;;;11.65;10.38;;;17.70;39.40;;;;;;6191051;23;20195;-69
2022/03/26 05:46:05;;;;;;;12.63;10.82;;;17.70;39.40;;;;;;6189760;23;20171;-67
2022/03/26 05:48:32;;;;;;;11.60;10.50;;;17.70;39.30;;;;;;6190946;23;20254;-68
2022/03/26 05:51:00;;;;;;;11.70;10.50;;;17.70;39.20;;;;;;6216898;23;20170;-68
2022/03/26 05:53:27;;;;;;;11.27;10.18;;;17.70;39.10;;;;;;6216626;23;20195;-68
2022/03/26 05:55:55;;;;;;;12.10;10.80;;;17.70;39.20;;;;;;6190320;23;20614;-68
2022/03/26 05:58:22;;;;;;;12.65;10.55;;;17.70;38.90;;;;;;6216936;23;20687;-68
2022/03/26 06:00:49;;;;;;;11.45;10.30;;;17.80;39.00;;;;;;6216680;23;20163;-68
2022/03/26 06:03:18;;;;;;;11.70;10.52;;;17.80;39.00;;;;;;6190069;23;20546;-68
2022/03/26 06:05:45;;;;;;;12.77;11.32;;;17.80;38.90;;;;;;6189970;23;20614;-68
2022/03/26 06:08:14;;;;;;;12.07;10.68;;;17.90;38.90;;;;;;6189431;23;20172;-68
2022/03/26 06:10:41;;;;;;;12.32;10.98;;;17.90;38.90;;;;;;6214998;23;20176;-68
2022/03/26 06:13:08;;;;;;;12.13;9.93;;;17.90;38.80;;;;;;6215093;23;20195;-68
2022/03/26 06:15:36;;;;;;;11.57;10.38;;;17.90;38.60;;;;;;6190150;23;20249;-68
2022/03/26 06:18:03;;;;;;;11.60;10.45;;;17.90;38.70;;;;;;6189789;23;20258;-68
2022/03/26 06:20:31;;;;;;;11.13;9.93;;;18.00;38.70;;;;;;6190049;23;20494;-68
2022/03/26 06:22:58;;;;;;;12.25;11.00;;;18.00;38.60;;;;;;6190201;23;20198;-68
2022/03/26 06:25:26;;;;;;;11.63;10.10;;;18.10;38.70;;;;;;6189656;23;20532;-69
2022/03/26 06:27:53;;;;;;;11.15;10.05;;;18.10;38.50;;;;;;6214728;23;20179;-68
2022/03/26 06:30:21;;;;;;;11.85;10.60;;;18.10;38.50;;;;;;6202935;22;20296;-68
2022/03/26 06:32:48;;;;;;;11.80;10.40;;;18.10;38.50;;;;;;6160600;23;20176;-69
2022/03/26 06:35:15;;;;;;;11.68;10.48;;;18.20;38.40;;;;;;6186516;23;20636;-68
2022/03/26 06:37:43;;;;;;;13.70;11.18;;;18.20;38.30;;;;;;6160144;23;20226;-68
2022/03/26 06:40:11;;;;;;;11.40;10.27;;;18.30;38.30;;;;;;6160105;23;20583;-68
2022/03/26 06:42:39;;;;;;;11.73;10.60;;;18.30;38.10;;;;;;6160030;23;20215;-69
2022/03/26 06:45:07;;;;;;;12.02;10.57;;;18.40;37.90;;;;;;6187095;23;20164;-69
2022/03/26 06:47:34;;;;;;;11.40;10.23;;;18.60;37.70;;;;;;6163214;23;20267;-69
2022/03/26 06:50:01;;;;;;;11.80;10.35;;;18.80;37.40;;;;;;6161019;23;20196;-69
2022/03/26 06:52:28;;;;;;;12.45;10.90;;;19.00;37.10;;;;;;6186699;23;20683;-68
2022/03/26 06:54:56;;;;;;;11.50;10.07;;;19.20;36.80;;;;;;6200530;22;20186;-68
2022/03/26 06:57:50;;;;;;;11.05;9.93;;;19.30;36.80;;;;;;6248255;22;20166;-68
2022/03/26 07:00:17;;;;;;;11.00;9.90;;;19.40;36.30;;;;;;6244301;22;20329;-64
2022/03/26 07:02:44;;;;;;;10.80;9.70;;;19.60;36.40;;;;;;6212573;23;20653;-64
2022/03/26 07:05:11;;;;;;;11.35;10.27;;;19.70;36.20;;;;;;6189604;23;20222;-64
2022/03/26 07:07:39;;;;;;;13.75;12.35;;;19.90;36.10;;;;;;6216116;23;20221;-64
2022/03/26 07:10:07;;;;;;;12.80;11.45;;;20.00;36.00;;;;;;6189454;23;20171;-65
2022/03/26 07:12:34;;;;;;;12.77;11.48;;;20.20;35.80;;;;;;6189296;23;20187;-63
2022/03/26 07:15:05;;;;;;;13.00;11.40;;;20.40;35.40;;;;;;6189287;23;20274;-63
2022/03/26 07:17:32;;;;;;;13.48;12.13;;;20.60;35.00;;;;;;6216014;23;20159;-63
2022/03/26 07:19:59;;;;;;;13.75;12.35;;;20.70;34.70;;;;;;6216448;23;20242;-64
2022/03/26 07:22:26;;;;;;;15.10;13.50;;;20.80;34.50;;;;;;6215863;23;20566;-63
2022/03/26 07:24:53;;;;;;;15.93;14.27;;;21.00;34.40;;;;;;6189939;23;20168;-64
2022/03/26 07:27:21;;;;;;;14.95;13.38;;;21.10;34.30;;;;;;6235193;22;20198;-66
2022/03/26 07:29:48;;;;;;;13.77;12.38;;;21.20;34.30;;;;;;6246264;23;20193;-66
2022/03/26 07:34:51;;;;;;;14.32;12.93;;;21.40;33.90;;;;;;6245825;23;20186;-63
2022/03/26 07:37:18;;;;;;;16.00;14.35;;;21.60;33.80;;;;;;6246126;23;20167;-64
2022/03/26 07:39:45;;;;;;;15.85;14.20;;;21.70;33.60;;;;;;6246431;23;20198;-63
2022/03/26 07:42:12;;;;;;;13.18;11.85;;;21.80;33.40;;;;;;6218815;23;20198;-64
2022/03/26 07:44:40;;;;;;;12.73;11.38;;;21.90;33.50;;;;;;6219222;23;20175;-64
2022/03/26 07:47:07;;;;;;;13.93;12.43;;;21.90;33.30;;;;;;6218929;23;20301;-64
2022/03/26 07:49:35;;;;;;;12.23;10.88;;;22.10;33.30;;;;;;6245973;23;20250;-64
2022/03/26 07:52:03;;;;;;;13.02;11.80;;;22.20;33.30;;;;;;6246629;23;20246;-64
2022/03/26 07:54:30;;;;;;;12.07;10.48;;;22.30;33.20;;;;;;6219028;23;20547;-64
2022/03/26 07:56:57;;;;;;;11.85;10.68;;;22.30;33.00;;;;;;6202593;22;20226;-69
2022/03/26 08:01:53;;;;;;;12.00;10.80;;;22.50;32.80;;;;;;6215131;23;20622;-51
2022/03/26 08:04:20;;;;;;;10.30;9.30;;;22.60;32.60;;;;;;6203719;23;20192;-51
2022/03/26 08:09:18;;;;;;;10.68;9.27;;;22.80;32.50;;;;;;6129915;23;20489;-64
2022/03/26 08:11:45;;;;;;;9.82;8.82;;;22.80;32.40;;;;;;6182198;22;1140176;-66
2022/03/26 08:14:12;;;;;;;10.95;9.85;;;22.90;32.30;;;;;;6253873;22;20205;-67
2022/03/26 08:16:39;;;;;;;9.35;8.38;;;23.00;32.10;;;;;;6251291;22;20281;-67
2022/03/26 08:19:06;;;;;;;9.57;8.57;;;23.10;32.10;;;;;;6278224;22;20249;-68
2022/03/26 08:21:35;;;;;;;9.07;8.27;;;23.10;31.80;;;;;;6272182;22;20262;-67
2022/03/26 08:24:02;;;;;;;8.60;7.80;;;23.20;31.80;;;;;;6271238;22;20194;-67
2022/03/26 08:26:30;;;;;;;8.43;7.68;;;23.30;31.70;;;;;;6250828;22;20166;-67
2022/03/26 08:28:59;;;;;;;7.20;6.60;;;23.40;31.70;;;;;;6251251;22;20257;-67
2022/03/26 08:31:27;;;;;;;10.15;9.07;;;23.40;31.50;;;;;;6250877;22;20220;-67
2022/03/26 08:33:54;;;;;;;9.68;8.68;;;23.50;31.40;;;;;;6229115;23;20249;-66
2022/03/26 08:36:22;;;;;;;8.02;7.22;;;23.50;31.20;;;;;;6220469;23;20202;-67
2022/03/26 08:38:49;;;;;;;8.77;7.88;;;23.60;31.20;;;;;;6221185;22;20509;-70
2022/03/26 08:41:16;;;;;;;9.65;8.55;;;23.60;31.10;;;;;;6223294;23;20193;-69
2022/03/26 08:43:45;;;;;;;10.75;8.93;;;23.60;30.70;;;;;;6265371;22;20286;-62
2022/03/26 08:46:12;;;;;;;9.55;8.65;;;23.70;31.40;;;;;;6250811;22;20220;-62
2022/03/26 08:48:40;;;;;;;8.75;7.35;;;23.80;30.90;;;;;;6278306;22;20689;-62
2022/03/26 08:51:06;;;;;;;8.18;7.47;;;23.80;31.10;;;;;;6278040;22;20166;-62
2022/03/26 08:53:34;;;;;;;8.90;8.00;;;23.90;31.10;;;;;;6259808;22;20191;-62
2022/03/26 08:56:04;;;;;;;8.85;7.95;;;24.00;31.40;;;;;;6220224;23;20193;-62
2022/03/26 08:58:31;;;;;;;8.35;7.55;;;24.00;31.60;;;;;;6247077;23;20645;-63
2022/03/26 09:01:00;;;;;;;10.20;8.15;;;24.10;32.00;;;;;;6247719;23;20190;-63
2022/03/26 09:03:27;;;;;;;10.85;8.05;;;24.10;33.70;;;;;;6247137;22;20190;-64
2022/03/26 09:05:55;;;;;;;11.32;7.47;;;24.10;32.20;;;;;;6220634;23;20170;-64
2022/03/26 09:08:22;;;;;;;10.55;8.07;;;24.20;32.70;;;;;;6220266;23;20199;-63
2022/03/26 09:10:49;;;;;;;150.00;55.28;;;24.20;32.40;;;;;;6247268;23;20174;-64
2022/03/26 09:13:16;;;;;;;250.25;101.40;;;24.30;33.10;;;;;;6247167;22;20185;-63
2022/03/26 09:15:44;;;;;;;173.32;73.45;;;24.30;35.00;;;;;;6247208;23;20567;-63
2022/03/26 09:18:12;;;;;;;169.02;70.13;;;24.30;36.30;;;;;;6247185;23;20167;-64
2022/03/26 09:20:41;;;;;;;151.63;62.67;;;24.40;35.50;;;;;;6219617;23;20174;-62
2022/03/26 09:23:08;;;;;;;109.80;44.90;;;24.50;36.40;;;;;;6245848;23;20201;-63
2022/03/26 09:25:36;;;;;;;99.13;43.88;;;24.50;35.00;;;;;;6247486;23;20574;-63
2022/03/26 09:28:03;;;;;;;88.60;41.33;;;24.50;33.70;;;;;;6247395;23;20541;-63
2022/03/26 09:30:31;;;;;;;85.65;39.55;;;24.50;33.80;;;;;;6219733;23;20197;-63
2022/03/26 09:32:58;;;;;;;77.80;35.90;;;24.60;33.50;;;;;;6247165;22;20183;-62
2022/03/26 09:35:27;;;;;;;72.53;36.38;;;24.60;33.30;;;;;;6219968;23;20202;-63
2022/03/26 09:37:54;;;;;;;62.75;32.00;;;24.60;33.80;;;;;;6220357;23;20621;-64
2022/03/26 09:40:23;;;;;;;64.20;32.00;;;24.60;32.50;;;;;;6245294;23;20174;-63
2022/03/26 09:42:50;;;;;;;56.97;29.88;;;24.70;32.70;;;;;;6219955;23;20240;-63
2022/03/26 09:45:17;;;;;;;57.67;29.15;;;24.70;32.70;;;;;;6246989;23;20185;-64
2022/03/26 09:47:44;;;;;;;59.90;29.15;;;24.70;32.30;;;;;;6246522;23;20163;-64
2022/03/26 09:50:11;;;;;;;53.13;27.63;;;24.70;32.90;;;;;;6246911;23;20296;-64
2022/03/26 09:52:40;;;;;;;50.22;26.77;;;24.80;33.30;;;;;;6246572;22;20527;-65
2022/03/26 09:55:11;;;;;;;48.22;25.73;;;24.70;32.70;;;;;;6246733;23;20171;-64
2022/03/26 09:57:39;;;;;;;45.88;23.67;;;24.80;32.70;;;;;;6219676;23;20232;-63
2022/03/26 10:00:08;;;;;;;44.17;23.38;;;24.80;32.20;;;;;;6219950;23;20170;-64
2022/03/26 10:02:39;;;;;;;47.78;25.42;;;24.80;32.30;;;;;;6246943;22;20195;-64
2022/03/26 10:05:11;;;;;;;44.78;22.63;;;24.80;32.40;;;;;;6219855;23;20167;-64
2022/03/26 10:07:38;;;;;;;46.50;22.70;;;24.80;32.50;;;;;;6245132;23;20514;-64
2022/03/26 10:10:07;;;;;;;47.33;23.55;;;24.80;32.70;;;;;;6246433;23;20216;-64
2022/03/26 10:12:34;;;;;;;43.63;22.98;;;24.70;33.00;;;;;;6246953;22;20193;-65
2022/03/26 10:15:04;;;;;;;41.83;21.83;;;24.70;32.50;;;;;;6246603;23;20169;-65
2022/03/26 10:17:32;;;;;;;43.35;21.58;;;24.80;32.50;;;;;;6246554;23;20186;-65
2022/03/26 10:20:00;;;;;;;52.53;21.50;;;24.70;32.90;;;;;;6246478;23;20233;-64
2022/03/26 10:22:29;;;;;;;40.75;21.50;;;24.70;33.10;;;;;;6219301;22;20229;-64
2022/03/26 10:24:57;;;;;;;39.75;19.67;;;24.80;33.00;;;;;;6219755;23;20175;-64
2022/03/26 10:27:26;;;;;;;36.30;19.35;;;24.70;33.10;;;;;;6246309;23;20183;-64
2022/03/26 10:29:56;;;;;;;37.88;19.38;;;24.70;33.10;;;;;;6244946;23;20175;-65
2022/03/26 10:32:41;;;;;;;38.97;19.33;;;24.70;33.00;;;;;;6245200;22;20167;-65
2022/03/26 10:35:10;;;;;;;37.28;19.42;;;24.70;33.10;;;;;;6219669;23;20169;-65
2022/03/26 10:37:45;;;;;;;35.30;18.77;;;24.60;33.20;;;;;;6246268;23;20209;-65
2022/03/26 10:40:20;;;;;;;35.97;18.83;;;24.60;33.10;;;;;;6246463;23;20165;-65
2022/03/26 10:42:54;;;;;;;39.22;19.30;;;24.60;33.00;;;;;;6219451;23;20217;-65
2022/03/26 10:45:21;;;;;;;33.00;17.60;;;24.50;33.00;;;;;;6246953;23;20204;-65
2022/03/26 10:47:49;;;;;;;32.28;17.60;;;24.50;33.00;;;;;;6220727;23;20224;-65
2022/03/26 10:50:16;;;;;;;31.85;16.58;;;24.50;33.10;;;;;;6246772;23;20237;-65
2022/03/26 10:52:43;;;;;;;29.88;16.27;;;24.40;33.40;;;;;;6219746;23;20262;-65
2022/03/26 10:55:14;;;;;;;31.60;16.42;;;24.40;33.20;;;;;;6219797;23;20514;-65
2022/03/26 10:57:42;;;;;;;29.55;16.05;;;24.30;33.20;;;;;;6246801;23;20621;-65
2022/03/26 11:00:12;;;;;;;28.33;14.90;;;24.20;33.30;;;;;;6247009;23;20167;-65
2022/03/26 11:02:41;;;;;;;26.80;15.52;;;24.20;33.30;;;;;;6219400;23;20260;-65
2022/03/26 11:05:09;;;;;;;27.40;14.30;;;24.00;33.40;;;;;;6246185;23;20198;-65
2022/03/26 11:07:37;;;;;;;26.20;15.57;;;24.00;33.50;;;;;;6246374;23;20640;-65
2022/03/26 11:10:05;;;;;;;25.85;14.77;;;23.90;33.40;;;;;;6219518;23;20261;-65
2022/03/26 11:12:32;;;;;;;29.08;15.50;;;23.90;33.40;;;;;;6246784;22;20179;-66
2022/03/26 11:15:00;;;;;;;24.92;14.18;;;23.90;33.40;;;;;;6246387;23;20159;-65
2022/03/26 11:17:41;;;;;;;26.85;15.10;;;23.80;33.50;;;;;;6219331;23;20194;-65
2022/03/26 11:20:31;;;;;;;25.15;14.40;;;23.70;33.50;;;;;;6219426;23;20171;-65
2022/03/26 11:23:06;;;;;;;25.55;14.05;;;23.70;33.50;;;;;;6219326;23;20201;-65
2022/03/26 11:25:40;;;;;;;23.27;13.40;;;23.60;34.20;;;;;;6246750;23;20496;-65
2022/03/26 11:28:31;;;;;;;23.38;12.95;;;23.60;33.70;;;;;;6246672;23;20171;-65
2022/03/26 11:31:00;;;;;;;25.85;13.30;;;23.50;33.70;;;;;;6246460;23;20512;-65
2022/03/26 11:33:34;;;;;;;22.38;13.25;;;23.50;33.70;;;;;;6219139;23;20194;-65
2022/03/26 11:36:03;;;;;;;21.48;13.18;;;23.40;33.60;;;;;;6219286;23;20602;-65
2022/03/26 11:38:31;;;;;;;24.88;12.82;;;23.40;33.70;;;;;;6246305;23;20170;-65
2022/03/26 11:41:01;;;;;;;25.73;12.50;;;23.40;33.80;;;;;;6245857;23;20163;-65
2022/03/26 11:43:51;;;;;;;25.98;12.75;;;23.40;34.60;;;;;;6219835;23;20233;-65
2022/03/26 11:52:13;;;;;;;19.70;11.95;;;23.30;33.50;;;;;;6221175;23;20175;-65
2022/03/26 11:54:41;;;;;;;21.25;12.70;;;23.30;33.70;;;;;;6221430;23;20659;-65
2022/03/26 11:57:09;;;;;;;18.48;12.15;;;23.30;33.70;;;;;;6248188;23;20190;-65
2022/03/26 11:59:37;;;;;;;18.20;11.93;;;23.30;33.70;;;;;;6246700;23;20171;-65
2022/03/26 12:02:16;;;;;;;17.75;11.15;;;23.30;33.70;;;;;;6248097;23;20676;-65
2022/03/26 12:04:58;;;;;;;16.50;10.73;;;23.30;33.60;;;;;;6248148;23;20155;-65
2022/03/26 12:07:28;;;;;;;18.95;11.60;;;23.30;33.80;;;;;;6221099;23;20186;-65
2022/03/26 12:10:10;;;;;;;18.63;11.70;;;23.30;33.90;;;;;;6255700;22;20285;-56
2022/03/26 12:13:01;;;;;;;18.10;10.70;;;23.30;34.00;;;;;;6251253;22;20177;-55
2022/03/26 12:15:33;;;;;;;19.05;11.57;;;23.20;34.20;;;;;;6247549;23;20151;-56
2022/03/26 12:18:24;;;;;;;17.23;10.77;;;23.30;33.90;;;;;;6220563;23;20186;-56
2022/03/26 12:20:53;;;;;;;18.30;10.65;;;23.20;33.70;;;;;;6215025;23;20174;-56
2022/03/26 12:23:26;;;;;;;19.48;10.98;;;23.20;33.90;;;;;;6220607;23;20269;-56
2022/03/26 12:25:54;;;;;;;16.00;10.18;;;23.30;34.00;;;;;;6247602;23;20155;-56
2022/03/26 12:28:31;;;;;;;15.80;11.48;;;23.30;34.20;;;;;;6220705;23;20505;-55
2022/03/26 12:30:59;;;;;;;15.43;10.57;;;23.20;33.70;;;;;;6247629;23;20175;-56
2022/03/26 12:33:27;;;;;;;16.25;10.38;;;23.20;33.90;;;;;;6220706;23;20194;-56
2022/03/26 12:35:55;;;;;;;14.40;10.55;;;23.20;34.10;;;;;;6247152;23;20217;-55
2022/03/26 12:38:23;;;;;;;14.40;10.15;;;23.20;33.80;;;;;;6220076;23;20191;-56
2022/03/26 12:40:54;;;;;;;14.77;10.18;;;23.20;33.90;;;;;;6220713;23;20221;-56
2022/03/26 12:43:21;;;;;;;15.05;10.30;;;23.20;33.80;;;;;;6247444;23;20525;-56
2022/03/26 12:45:49;;;;;;;15.90;10.27;;;23.20;33.90;;;;;;6247582;23;20173;-55
2022/03/26 12:48:16;;;;;;;16.80;9.90;;;23.20;33.80;;;;;;6220324;23;20163;-55
2022/03/26 12:50:44;;;;;;;16.20;9.70;;;23.20;33.90;;;;;;6220586;23;20166;-56
2022/03/26 12:53:13;;;;;;;13.00;9.18;;;23.20;34.00;;;;;;6220465;23;20195;-56
2022/03/26 12:55:40;;;;;;;15.05;9.68;;;23.20;34.20;;;;;;6220274;23;20170;-56
2022/03/26 13:01:02;;;;;;;14.68;9.77;;;23.20;34.00;;;;;;6247645;23;20147;-56
2022/03/26 13:03:29;;;;;;;13.10;8.68;;;23.30;33.50;;;;;;6247510;23;20658;-55
2022/03/26 13:05:56;;;;;;;14.30;9.85;;;23.30;33.70;;;;;;6246955;23;20165;-55
2022/03/26 13:08:26;;;;;;;13.60;9.10;;;23.20;33.90;;;;;;6220163;23;20249;-55
2022/03/26 13:10:54;;;;;;;13.48;9.40;;;23.30;33.50;;;;;;6220095;23;20174;-56
2022/03/26 13:13:21;;;;;;;13.55;9.27;;;23.30;32.20;;;;;;6246876;23;20183;-56
2022/03/26 13:16:01;;;;;;;14.80;9.82;;;23.40;32.80;;;;;;6220441;23;20174;-56
2022/03/26 13:18:29;;;;;;;11.02;8.98;;;23.40;31.90;;;;;;6247274;23;20640;-55